Time;durP1;ratioP1;P1;durP2;ratioP2;P2;SDS_P1;SDS_P2;PMS_P1;PMS_P2;Temp;Humidity;BMP_temperature;BMP_pressure;BME280_temperature;BME280_humidity;BME280_pressure;Samples;Min_cycle;Max_cycle;Signal;HPM_P1;HPM_P2
2022/06/02 00:01:07;;;;;;;7.00;4.45;;;;;;;13.70;62.62;101196.84;4914768;28;119317;-78
2022/06/02 00:03:59;;;;;;;5.25;4.20;;;;;;;13.65;62.85;101192.72;4940074;28;119340;-78
2022/06/02 00:07:00;;;;;;;5.88;4.40;;;;;;;13.63;63.04;101191.66;4903931;28;120069;-79
2022/06/02 00:09:56;;;;;;;6.32;4.00;;;;;;;13.64;62.18;101187.66;4943049;28;119685;-79
2022/06/02 00:12:52;;;;;;;8.07;4.88;;;;;;;13.58;62.65;101187.50;4946007;28;119878;-78
2022/06/02 00:15:34;;;;;;;6.03;4.20;;;;;;;13.59;62.86;101186.28;4932431;28;119310;-79
2022/06/02 00:18:00;;;;;;;5.40;4.68;;;;;;;13.59;63.23;101182.75;4949851;28;119358;-79
2022/06/02 00:20:58;;;;;;;5.85;4.82;;;;;;;13.56;63.28;101180.94;4950950;28;119654;-79
2022/06/02 00:23:33;;;;;;;8.05;4.50;;;;;;;13.57;62.86;101174.19;4927218;28;120250;-78
2022/06/02 00:26:25;;;;;;;7.88;4.63;;;;;;;13.52;62.97;101176.34;4933566;28;119697;-78
2022/06/02 00:29:24;;;;;;;5.40;4.32;;;;;;;13.54;63.20;101175.88;4897477;28;119418;-78
2022/06/02 00:31:58;;;;;;;5.45;4.15;;;;;;;13.52;63.30;101176.34;4918352;28;119247;-78
2022/06/02 00:34:47;;;;;;;7.40;4.57;;;;;;;13.52;63.15;101173.59;4923451;28;120209;-79
2022/06/02 00:37:42;;;;;;;5.50;4.68;;;;;;;13.49;63.65;101174.50;4932145;28;121283;-79
2022/06/02 00:40:09;;;;;;;9.02;4.65;;;;;;;13.51;63.91;101179.56;4943099;28;119294;-78
2022/06/02 00:43:16;;;;;;;8.43;5.30;;;;;;;13.52;63.83;101179.09;4935597;28;119495;-79
2022/06/02 00:45:44;;;;;;;8.18;4.90;;;;;;;13.54;64.48;101181.38;4928415;28;120201;-79
2022/06/02 00:48:28;;;;;;;7.05;5.07;;;;;;;13.54;64.69;101180.63;4904373;28;119957;-78
2022/06/02 00:51:05;;;;;;;6.93;4.78;;;;;;;13.62;64.58;101185.38;4937188;28;120925;-78
2022/06/02 00:53:33;;;;;;;11.38;5.60;;;;;;;13.65;64.64;101189.97;4954302;28;119312;-79
2022/06/02 00:59:37;;;;;;;8.32;4.68;;;;;;;13.75;64.03;101193.50;4929270;28;120423;-78
2022/06/02 01:02:03;;;;;;;8.07;5.10;;;;;;;13.80;64.30;101192.88;4918018;28;119507;-78
2022/06/02 01:04:29;;;;;;;8.20;4.38;;;;;;;13.80;63.93;101185.38;4951036;28;119382;-78
2022/06/02 01:07:14;;;;;;;6.70;4.28;;;;;;;13.92;63.80;101200.22;4917288;28;120150;-79
2022/06/02 01:09:54;;;;;;;8.82;4.63;;;;;;;13.98;63.90;101209.44;4938902;28;119456;-78
2022/06/02 01:12:25;;;;;;;5.53;4.13;;;;;;;14.07;64.02;101200.38;4958650;28;119845;-78
2022/06/02 01:15:14;;;;;;;6.80;4.60;;;;;;;14.12;64.36;101208.78;4947864;28;120271;-78
2022/06/02 01:18:07;;;;;;;6.63;4.63;;;;;;;14.19;65.22;101212.44;4920145;28;119613;-78
2022/06/02 01:20:39;;;;;;;9.90;4.90;;;;;;;14.25;65.32;101213.38;4956568;28;120391;-78
2022/06/02 01:23:29;;;;;;;7.05;4.72;;;;;;;14.28;65.35;101212.44;4952214;28;119360;-79
2022/06/02 01:26:31;;;;;;;9.23;4.75;;;;;;;14.28;65.14;101199.41;4936289;28;119772;-78
2022/06/02 01:29:08;;;;;;;9.40;5.03;;;;;;;14.33;65.10;101207.06;4897494;28;119510;-79
2022/06/02 01:31:48;;;;;;;7.47;4.82;;;;;;;14.38;65.69;101205.66;4925644;28;119854;-78
2022/06/02 01:34:32;;;;;;;7.78;4.72;;;;;;;14.36;66.11;101195.09;4943472;28;119850;-79
2022/06/02 01:37:36;;;;;;;8.32;5.25;;;;;;;14.44;65.65;101203.88;4934982;28;120056;-78
2022/06/02 01:40:07;;;;;;;9.82;5.70;;;;;;;14.44;65.81;101195.59;4941676;28;119274;-78
2022/06/02 01:42:53;;;;;;;10.05;5.05;;;;;;;14.51;66.01;101194.47;4920961;28;119891;-79
2022/06/02 01:45:43;;;;;;;8.05;5.47;;;;;;;14.51;66.26;101191.72;4956172;28;119745;-79
2022/06/02 01:48:29;;;;;;;10.02;5.00;;;;;;;14.60;66.03;101202.72;4920571;28;119421;-78
2022/06/02 01:51:25;;;;;;;10.13;5.55;;;;;;;14.62;66.40;101189.97;4950937;28;120433;-78
2022/06/02 01:54:03;;;;;;;10.57;5.13;;;;;;;14.63;66.55;101190.75;4949907;28;119263;-78
2022/06/02 01:56:52;;;;;;;9.95;5.13;;;;;;;14.63;66.59;101187.97;4937682;28;119475;-78
2022/06/02 01:59:18;;;;;;;11.73;5.30;;;;;;;14.69;66.44;101192.44;4933155;28;121384;-79
2022/06/02 02:02:06;;;;;;;9.95;5.30;;;;;;;14.72;66.65;101199.78;4921210;28;119526;-78
2022/06/02 02:04:51;;;;;;;10.68;5.38;;;;;;;14.73;66.84;101193.03;4954743;28;119412;-79
2022/06/02 02:07:23;;;;;;;8.93;4.95;;;;;;;14.74;67.21;101194.53;4941388;28;120265;-78
2022/06/02 02:10:02;;;;;;;10.05;6.35;;;;;;;14.77;66.92;101187.31;4953755;28;119753;-79
2022/06/02 02:12:44;;;;;;;8.77;5.88;;;;;;;14.77;67.44;101197.59;4939069;28;119441;-79
2022/06/02 02:15:26;;;;;;;10.02;5.97;;;;;;;14.81;67.08;101198.19;4924359;28;119411;-79
2022/06/02 02:18:17;;;;;;;10.82;5.97;;;;;;;14.81;67.42;101195.44;4939538;28;119519;-79
2022/06/02 02:21:20;;;;;;;10.05;6.07;;;;;;;14.84;67.37;101191.75;4919800;28;119788;-79
2022/06/02 02:24:10;;;;;;;9.50;5.38;;;;;;;14.83;67.60;101193.72;4954674;28;120621;-79
2022/06/02 02:26:48;;;;;;;9.20;5.50;;;;;;;14.84;67.88;101188.97;4957341;28;119485;-79
2022/06/02 02:29:13;;;;;;;9.48;5.50;;;;;;;14.87;67.93;101193.56;4919396;28;119476;-79
2022/06/02 02:32:05;;;;;;;10.13;5.80;;;;;;;14.91;68.17;101188.66;4937567;28;119660;-78
2022/06/02 02:34:59;;;;;;;10.38;5.28;;;;;;;14.91;68.10;101189.41;4935438;28;120897;-78
2022/06/02 02:37:42;;;;;;;10.55;5.00;;;;;;;14.89;68.31;101186.34;4938785;28;119717;-79
2022/06/02 02:40:38;;;;;;;9.80;5.07;;;;;;;14.96;67.92;101193.53;4942536;28;119843;-79
2022/06/02 02:43:09;;;;;;;8.35;5.13;;;;;;;15.00;68.28;101188.59;4942340;28;120860;-79
2022/06/02 02:45:55;;;;;;;10.75;4.95;;;;;;;14.98;67.92;101180.78;4936207;28;119470;-79
2022/06/02 02:48:39;;;;;;;10.20;4.75;;;;;;;15.01;68.45;101182.59;4935033;28;119513;-79
2022/06/02 02:51:13;;;;;;;9.95;4.85;;;;;;;15.01;67.97;101181.84;4950876;28;120135;-79
2022/06/02 02:53:46;;;;;;;11.50;4.40;;;;;;;15.03;67.95;101182.91;4918614;28;119918;-79
2022/06/02 02:56:33;;;;;;;12.68;4.90;;;;;;;15.05;68.22;101185.94;4935605;28;120055;-79
2022/06/02 02:59:17;;;;;;;9.00;5.00;;;;;;;15.01;68.17;101173.56;4915278;28;120029;-79
2022/06/02 03:02:02;;;;;;;10.77;4.95;;;;;;;15.10;68.50;101186.53;4931232;28;119399;-79
2022/06/02 03:05:23;;;;;;;12.05;5.28;;;;;;;15.08;68.02;101181.47;4942270;28;119457;-79
2022/06/02 03:07:49;;;;;;;11.25;5.20;;;;;;;15.10;68.23;101187.31;4950231;28;119812;-79
2022/06/02 03:10:27;;;;;;;12.10;5.20;;;;;;;15.12;68.66;101195.13;4953943;28;119717;-79
2022/06/02 03:13:07;;;;;;;11.13;5.13;;;;;;;15.12;68.67;101182.06;4952558;28;119502;-79
2022/06/02 03:15:39;;;;;;;10.30;4.68;;;;;;;15.14;68.64;101189.88;4933908;28;119400;-79
2022/06/02 03:18:35;;;;;;;15.68;5.47;;;;;;;15.15;68.41;101186.69;4940086;28;119815;-79
2022/06/02 03:21:30;;;;;;;11.55;4.95;;;;;;;15.17;68.17;101186.22;4913378;28;119431;-78
2022/06/02 03:24:20;;;;;;;11.50;4.88;;;;;;;15.17;68.26;101184.22;4917973;28;119747;-79
2022/06/02 03:27:07;;;;;;;13.30;5.20;;;;;;;15.19;68.39;101190.03;4929823;28;119557;-79
2022/06/02 03:30:02;;;;;;;11.20;4.70;;;;;;;15.19;68.63;101192.78;4921524;28;119599;-79
2022/06/02 03:32:46;;;;;;;11.18;5.03;;;;;;;15.20;68.36;101182.50;4942422;28;119240;-79
2022/06/02 03:35:17;;;;;;;;;;;;;;;15.20;68.38;101188.78;4932837;28;122064;-79
2022/06/02 03:38:08;;;;;;;12.88;4.78;;;;;;;15.21;68.14;101182.03;4918189;28;119743;-79
2022/06/02 03:40:52;;;;;;;14.45;5.15;;;;;;;15.23;68.61;101196.16;4938320;28;119666;-79
2022/06/02 03:43:36;;;;;;;10.80;5.38;;;;;;;15.24;68.04;101194.91;4919696;28;121943;-79
2022/06/02 03:46:46;;;;;;;14.32;5.65;;;;;;;15.23;68.86;101187.84;4925308;28;119755;-79
2022/06/02 03:49:11;;;;;;;19.05;5.57;;;;;;;15.28;68.24;101192.72;4934653;28;122374;-79
2022/06/02 03:52:01;;;;;;;10.43;4.78;;;;;;;15.23;68.82;101178.78;4932627;28;120070;-78
2022/06/02 03:54:56;;;;;;;12.80;5.20;;;;;;;15.29;68.36;101191.50;4939302;28;119355;-80
2022/06/02 03:57:50;;;;;;;13.00;5.32;;;;;;;15.34;68.26;101196.38;4938697;28;120006;-79
2022/06/02 04:00:27;;;;;;;12.20;5.20;;;;;;;15.34;67.94;101209.41;4935327;28;119631;-80
2022/06/02 04:03:01;;;;;;;13.73;5.13;;;;;;;15.36;68.47;101206.94;4924835;28;119423;-79
2022/06/02 04:05:48;;;;;;;11.63;5.10;;;;;;;15.36;68.53;101206.94;4932854;28;119411;-80
2022/06/02 04:08:20;;;;;;;12.38;5.25;;;;;;;15.38;68.57;101207.28;4937691;28;119411;-79
2022/06/02 04:10:55;;;;;;;15.23;6.07;;;;;;;15.40;68.54;101215.84;4958236;28;119550;-79
2022/06/02 04:13:40;;;;;;;12.07;5.60;;;;;;;15.41;68.18;101214.63;4954099;28;119771;-79
2022/06/02 04:16:27;;;;;;;11.23;4.88;;;;;;;15.40;68.22;101212.31;4937708;28;119847;-81
2022/06/02 04:18:59;;;;;;;13.05;5.50;;;;;;;15.40;68.12;101210.31;4942604;28;121757;-80
2022/06/02 04:21:48;;;;;;;15.65;5.63;;;;;;;15.36;68.25;101210.47;4944124;28;119291;-81
2022/06/02 04:24:38;;;;;;;13.75;5.65;;;;;;;15.43;68.54;101222.44;4945289;28;120172;-81
2022/06/02 04:27:17;;;;;;;14.68;5.18;;;;;;;15.43;68.50;101223.19;4944135;28;119504;-79
2022/06/02 04:30:04;;;;;;;19.10;5.88;;;;;;;15.44;68.27;101227.50;4945703;28;119228;-79
2022/06/02 04:32:41;;;;;;;12.27;5.70;;;;;;;15.40;68.32;101220.63;4923767;28;119954;-81
2022/06/02 04:35:19;;;;;;;16.13;6.63;;;;;;;15.46;68.28;101233.31;4927792;28;119853;-81
2022/06/02 04:38:15;;;;;;;15.68;6.28;;;;;;;15.47;68.13;101229.31;4945151;28;119477;-81
2022/06/02 04:40:50;;;;;;;16.27;6.60;;;;;;;15.48;68.43;101235.59;4926555;28;120883;-81
2022/06/02 04:43:29;;;;;;;14.77;6.47;;;;;;;15.49;68.25;101237.91;4942802;28;119429;-81
2022/06/02 04:46:17;;;;;;;16.02;6.55;;;;;;;15.52;68.62;101241.72;4929586;28;119437;-82
2022/06/02 04:49:08;;;;;;;17.23;6.90;;;;;;;15.47;68.43;101236.84;4941374;28;120958;-81
2022/06/02 04:51:50;;;;;;;21.63;6.78;;;;;;;15.52;68.45;101248.00;4943367;28;119414;-80
2022/06/02 04:54:46;;;;;;;15.27;6.45;;;;;;;15.53;68.31;101244.00;4956911;28;118572;-82
2022/06/02 04:57:45;;;;;;;15.30;6.93;;;;;;;15.54;68.53;101253.06;4960013;28;119317;-81
2022/06/02 05:00:17;;;;;;;19.10;6.45;;;;;;;15.49;68.16;101242.66;4944891;28;119370;-81
2022/06/02 05:03:04;;;;;;;18.35;8.40;;;;;;;15.52;68.23;101248.00;4925998;28;120856;-82
2022/06/02 05:05:40;;;;;;;18.27;7.00;;;;;;;15.54;68.56;101244.78;4956348;28;119647;-82
2022/06/02 05:08:13;;;;;;;15.82;7.55;;;;;;;15.54;68.57;101248.31;4949719;28;119355;-82
2022/06/02 05:10:47;;;;;;;18.15;8.02;;;;;;;15.56;68.42;101247.84;4912101;28;120006;-83
2022/06/02 05:13:19;;;;;;;;;;;;;;;15.56;68.16;101247.84;4929828;28;119149;-80
2022/06/02 05:16:27;;;;;;;15.25;7.45;;;;;;;15.57;68.52;101249.38;4930972;28;119555;-82
2022/06/02 05:18:55;;;;;;;16.20;8.20;;;;;;;15.59;69.00;101253.22;4934984;28;119498;-82
2022/06/02 05:21:30;;;;;;;20.27;8.25;;;;;;;15.66;68.85;101257.63;4947832;28;119586;-80
2022/06/02 05:23:56;;;;;;;21.05;8.50;;;;;;;15.70;68.63;101263.75;4956615;28;120123;-80
2022/06/02 05:26:36;;;;;;;18.98;7.75;;;;;;;15.72;68.38;101258.50;4962926;28;119910;-81
2022/06/02 05:29:38;;;;;;;19.23;8.40;;;;;;;15.69;68.82;101259.47;4961111;28;119512;-79
2022/06/02 05:32:07;;;;;;;21.38;8.52;;;;;;;15.74;68.43;101269.88;4934117;28;120973;-80
2022/06/02 05:34:55;;;;;;;16.75;8.23;;;;;;;15.79;68.47;101268.44;4946115;28;119778;-81
2022/06/02 05:37:33;;;;;;;20.42;8.65;;;;;;;15.81;68.37;101275.03;4948184;28;119306;-81
2022/06/02 05:40:20;;;;;;;22.20;8.45;;;;;;;15.87;68.71;101277.94;4963731;28;119372;-80
2022/06/02 05:43:08;;;;;;;19.48;8.65;;;;;;;15.88;68.10;101273.94;4963270;28;119762;-80
2022/06/02 05:45:52;;;;;;;20.27;8.55;;;;;;;15.89;68.46;101281.00;4949094;28;119474;-81
2022/06/02 05:48:49;;;;;;;21.23;7.80;;;;;;;15.89;68.42;101287.28;4909892;28;120029;-81
2022/06/02 05:51:30;;;;;;;14.95;7.43;;;;;;;15.89;68.24;101286.53;4949076;28;119735;-81
2022/06/02 05:54:29;;;;;;;16.40;8.75;;;;;;;15.90;68.19;101294.34;4952318;28;119514;-80
2022/06/02 05:57:04;;;;;;;15.48;7.93;;;;;;;15.90;68.33;101299.13;4958525;28;119443;-81
2022/06/02 06:00:03;;;;;;;20.90;8.93;;;;;;;15.93;67.90;101304.47;4952738;28;119411;-81
2022/06/02 06:02:56;;;;;;;25.02;9.38;;;;;;;15.90;67.85;101299.88;4950520;28;118964;-80
2022/06/02 06:05:41;;;;;;;23.60;9.73;;;;;;;15.87;67.75;101303.59;4949682;28;119536;-82
2022/06/02 06:08:19;;;;;;;21.15;9.15;;;;;;;15.86;68.28;101304.06;4951967;28;119514;-81
2022/06/02 06:10:45;;;;;;;26.90;9.73;;;;;;;15.85;68.09;101303.31;4966042;28;120723;-81
2022/06/02 06:13:28;;;;;;;17.38;10.10;;;;;;;15.85;67.92;101308.03;4944774;28;118992;-81
2022/06/02 06:16:07;;;;;;;19.83;9.13;;;;;;;15.79;68.62;101296.09;4940974;28;120874;-81
2022/06/02 06:18:52;;;;;;;25.08;9.65;;;;;;;15.80;68.38;101294.88;4975952;28;119294;-81
2022/06/02 06:21:33;;;;;;;19.13;9.57;;;;;;;15.85;68.19;101308.03;4970639;28;119830;-82
2022/06/02 06:24:02;;;;;;;21.92;9.07;;;;;;;15.89;68.63;101323.25;4926426;28;119903;-80
2022/06/02 06:26:41;;;;;;;19.00;9.57;;;;;;;15.89;68.28;101330.78;4941560;28;119643;-80
2022/06/02 06:29:27;;;;;;;22.85;9.93;;;;;;;15.88;68.09;101326.50;4961594;28;119416;-81
2022/06/02 06:32:02;;;;;;;21.95;9.65;;;;;;;15.86;68.17;101332.50;4919360;28;121887;-80
2022/06/02 06:34:31;;;;;;;17.02;8.10;;;;;;;15.87;68.69;101324.97;4947246;28;119512;-82
2022/06/02 06:37:16;;;;;;;25.92;9.32;;;;;;;15.87;68.10;101336.78;4933254;28;120056;-81
2022/06/02 06:40:10;;;;;;;21.70;8.60;;;;;;;15.87;68.31;101334.03;4944948;28;119415;-82
2022/06/02 06:42:54;;;;;;;18.60;9.25;;;;;;;15.87;68.07;101334.03;4961199;28;119450;-81
2022/06/02 06:45:42;;;;;;;16.80;9.30;;;;;;;15.89;68.03;101337.09;4965385;28;120361;-82
2022/06/02 06:48:18;;;;;;;17.50;9.32;;;;;;;15.88;67.87;101343.84;4973519;28;119696;-82
2022/06/02 06:51:01;;;;;;;21.40;9.40;;;;;;;15.86;68.17;101337.25;4973815;28;119303;-81
2022/06/02 06:53:45;;;;;;;20.70;9.15;;;;;;;15.90;68.43;101349.69;4956742;28;119197;-81
2022/06/02 06:56:32;;;;;;;20.73;9.43;;;;;;;15.87;68.09;101347.84;4969435;28;119735;-81
2022/06/02 06:58:57;;;;;;;20.02;8.95;;;;;;;15.92;67.98;101347.22;4968252;28;119483;-81
2022/06/02 07:01:45;;;;;;;22.58;9.00;;;;;;;15.92;68.07;101341.66;4976741;28;119661;-80
2022/06/02 07:04:28;;;;;;;19.35;8.88;;;;;;;15.94;68.37;101339.19;4958085;28;119432;-80
2022/06/02 07:07:09;;;;;;;22.95;9.30;;;;;;;16.00;68.34;101349.59;4972101;28;119318;-81
2022/06/02 07:09:44;;;;;;;22.38;8.98;;;;;;;16.05;68.34;101355.25;4952672;28;119563;-81
2022/06/02 07:15:21;;;;;;;21.13;9.18;;;;;;;16.15;68.57;101353.19;4973516;28;119705;-81
2022/06/02 07:18:24;;;;;;;19.00;8.07;;;;;;;16.24;68.37;101355.88;4960100;28;119635;-80
2022/06/02 07:21:07;;;;;;;22.83;9.07;;;;;;;16.30;68.36;101356.75;4938858;28;121179;-80
2022/06/02 07:23:56;;;;;;;20.27;8.70;;;;;;;16.38;68.02;101360.72;4946995;28;120076;-79
2022/06/02 07:26:43;;;;;;;14.20;8.48;;;;;;;16.38;68.18;101355.19;4935463;28;120023;-79
2022/06/02 07:29:29;;;;;;;19.40;8.05;;;;;;;16.44;67.50;101366.34;4946190;28;119661;-80
2022/06/02 07:32:11;;;;;;;20.60;8.93;;;;;;;16.44;67.51;101377.41;4928381;28;119700;-80
2022/06/02 07:34:51;;;;;;;16.58;8.57;;;;;;;16.39;67.28;101370.53;4969821;28;119380;-80
2022/06/02 07:37:29;;;;;;;21.00;7.90;;;;;;;16.41;67.12;101370.84;4939010;28;121287;-79
2022/06/02 07:40:04;;;;;;;21.35;8.55;;;;;;;16.38;67.38;101373.78;4958177;28;118675;-80
2022/06/02 07:42:57;;;;;;;21.73;8.15;;;;;;;16.40;66.79;101379.63;4933751;28;120167;-80
2022/06/02 07:45:39;;;;;;;20.70;8.10;;;;;;;16.41;67.09;101379.13;4951894;28;121287;-80
2022/06/02 07:48:29;;;;;;;22.20;7.45;;;;;;;16.40;66.99;101374.84;4958153;28;119436;-79
2022/06/02 07:51:13;;;;;;;17.10;7.35;;;;;;;16.42;67.25;101386.22;4974189;28;120029;-80
2022/06/02 07:53:57;;;;;;;21.13;7.45;;;;;;;16.47;67.35;101387.56;4946713;28;119880;-80
2022/06/02 07:57:00;;;;;;;15.70;6.78;;;;;;;16.53;67.20;101382.88;4949703;28;119947;-80
2022/06/02 07:59:37;;;;;;;19.63;7.32;;;;;;;16.67;67.52;101392.50;4941814;28;121464;-80
2022/06/02 08:02:26;;;;;;;17.63;7.43;;;;;;;16.75;66.86;101385.31;4947541;28;119584;-80
2022/06/02 08:05:14;;;;;;;19.30;7.03;;;;;;;16.87;66.84;101392.63;4959604;28;119567;-80
2022/06/02 08:07:52;;;;;;;23.45;7.55;;;;;;;16.93;66.44;101393.47;4960084;28;119611;-80
2022/06/02 08:10:21;;;;;;;15.93;6.40;;;;;;;16.93;65.74;101396.25;4956805;28;119616;-80
2022/06/02 08:13:22;;;;;;;17.20;6.22;;;;;;;16.96;65.31;101402.84;4924792;28;120369;-80
2022/06/02 08:15:55;;;;;;;13.63;6.32;;;;;;;16.94;65.11;101403.31;4927973;28;119665;-79
2022/06/02 08:18:39;;;;;;;19.05;6.13;;;;;;;16.95;65.26;101413.16;4963597;28;120031;-80
2022/06/02 08:21:32;;;;;;;13.32;5.63;;;;;;;16.91;64.64;101412.59;4956408;28;121048;-80
2022/06/02 08:24:10;;;;;;;16.38;6.05;;;;;;;16.87;64.58;101417.56;4960970;28;119297;-80
2022/06/02 08:26:49;;;;;;;16.70;6.72;;;;;;;16.84;64.60;101424.81;4961412;28;119424;-80
2022/06/02 08:29:28;;;;;;;11.40;5.60;;;;;;;16.80;64.61;101423.47;4962522;28;119329;-79
2022/06/02 08:32:21;;;;;;;9.75;5.43;;;;;;;16.77;64.21;101432.72;4929057;28;119776;-80
2022/06/02 08:35:11;;;;;;;13.33;5.73;;;;;;;16.70;63.87;101431.09;4964768;28;119364;-79
2022/06/02 08:38:17;;;;;;;11.27;5.68;;;;;;;16.69;64.31;101443.41;4962061;28;119505;-80
2022/06/02 08:41:01;;;;;;;10.90;5.60;;;;;;;16.69;64.46;101448.94;4943586;28;120150;-80
2022/06/02 08:43:41;;;;;;;;;;;;;;;16.68;64.33;101444.66;4958267;28;119673;-79
2022/06/02 08:46:25;;;;;;;15.55;5.95;;;;;;;16.67;64.32;101445.88;4945492;28;119543;-80
2022/06/02 08:48:50;;;;;;;17.45;6.47;;;;;;;16.67;64.06;101437.56;4945098;28;119600;-80
2022/06/02 08:51:42;;;;;;;13.60;5.55;;;;;;;16.66;63.76;101451.88;4949882;28;119408;-79
2022/06/02 08:54:13;;;;;;;14.88;5.88;;;;;;;16.70;63.95;101452.47;4972240;28;119460;-78
2022/06/02 08:57:10;;;;;;;13.68;5.88;;;;;;;16.73;64.12;101454.28;4975878;28;119375;-80
2022/06/02 09:00:02;;;;;;;15.35;5.65;;;;;;;16.82;64.16;101466.09;4935022;28;119377;-79
2022/06/02 09:02:57;;;;;;;12.98;5.65;;;;;;;16.85;63.92;101465.13;4936236;28;119393;-80
2022/06/02 09:05:56;;;;;;;10.75;5.53;;;;;;;16.86;63.66;101471.44;4955426;28;119866;-80
2022/06/02 09:08:55;;;;;;;14.88;5.68;;;;;;;16.86;63.85;101471.44;4936262;28;119698;-79
2022/06/02 09:11:29;;;;;;;12.30;5.63;;;;;;;16.84;63.59;101474.69;4925527;28;119850;-79
2022/06/02 09:14:14;;;;;;;;;;;;;;;16.79;63.53;101474.56;4935769;28;119841;-79
2022/06/02 09:16:58;;;;;;;16.33;5.90;;;;;;;16.76;63.33;101475.50;4963768;28;119486;-79
2022/06/02 09:19:39;;;;;;;14.68;5.75;;;;;;;16.75;63.37;101485.06;4970181;28;119853;-80
2022/06/02 09:22:12;;;;;;;15.75;5.95;;;;;;;16.76;63.50;101489.38;4948352;28;120630;-79
2022/06/02 09:25:11;;;;;;;14.53;6.23;;;;;;;16.73;63.65;101484.78;4953798;28;119562;-80
2022/06/02 09:28:08;;;;;;;13.70;5.97;;;;;;;16.75;63.81;101496.91;4957188;28;119055;-80
2022/06/02 09:31:24;;;;;;;20.88;7.20;;;;;;;16.64;63.76;101487.59;4943635;28;119560;-79
2022/06/02 09:34:28;;;;;;;22.75;7.07;;;;;;;16.69;63.83;101512.66;4903071;28;119456;-80
2022/06/02 09:36:54;;;;;;;16.03;6.23;;;;;;;16.69;64.46;101511.91;4887829;28;120825;-80
2022/06/02 09:39:43;;;;;;;16.30;6.70;;;;;;;16.66;64.25;101505.31;4873065;28;119556;-80
2022/06/02 09:42:28;;;;;;;15.43;5.82;;;;;;;16.74;64.45;101517.53;4875151;28;119877;-81
2022/06/02 09:45:17;;;;;;;21.25;6.95;;;;;;;16.74;64.60;101525.09;4904029;28;119443;-79
2022/06/02 09:47:57;;;;;;;17.67;6.90;;;;;;;16.73;64.41;101521.56;4908820;28;119755;-80
2022/06/02 09:50:41;;;;;;;18.50;6.43;;;;;;;16.72;64.21;101527.56;4920275;28;118906;-80
2022/06/02 09:53:29;;;;;;;19.17;6.60;;;;;;;16.69;63.97;101532.06;4903497;28;119618;-80
2022/06/02 09:56:36;;;;;;;18.67;6.78;;;;;;;16.69;63.87;101526.50;4921916;28;119491;-80
2022/06/02 09:59:12;;;;;;;16.33;6.05;;;;;;;16.68;63.67;101532.53;4866178;28;121410;-80
2022/06/02 10:02:14;;;;;;;19.30;6.63;;;;;;;16.65;64.10;101527.91;4914888;28;120133;-80
2022/06/02 10:05:07;;;;;;;15.50;5.97;;;;;;;16.67;63.84;101536.53;4898557;28;119907;-80
2022/06/02 10:08:10;;;;;;;18.77;6.45;;;;;;;16.71;63.83;101531.56;4945245;28;120158;-80
2022/06/02 10:10:57;;;;;;;16.08;6.10;;;;;;;16.76;64.05;101534.47;4950811;28;119728;-80
2022/06/02 10:13:54;;;;;;;14.40;5.57;;;;;;;16.88;62.90;101535.47;4966378;28;119641;-80
2022/06/02 10:16:38;;;;;;;14.65;6.30;;;;;;;16.94;63.49;101536.34;4915579;28;119822;-79
2022/06/02 10:19:10;;;;;;;13.45;5.28;;;;;;;16.96;62.74;101533.84;4922293;28;121269;-80
2022/06/02 10:21:48;;;;;;;14.73;5.45;;;;;;;16.98;62.81;101539.69;4943262;28;119532;-80
2022/06/02 10:24:51;;;;;;;11.70;5.40;;;;;;;16.97;62.63;101540.16;4945836;28;120392;-80
2022/06/02 10:27:32;;;;;;;16.23;5.88;;;;;;;16.95;61.96;101534.31;4945322;28;119930;-80
2022/06/02 10:30:19;;;;;;;14.30;6.07;;;;;;;16.93;62.07;101553.44;4971483;28;119566;-79
2022/06/02 10:33:13;;;;;;;16.13;5.57;;;;;;;16.89;61.29;101559.16;4940040;28;119433;-80
2022/06/02 10:36:03;;;;;;;13.98;5.43;;;;;;;16.83;61.59;101552.75;4949342;28;119961;-80
2022/06/02 10:38:29;;;;;;;15.73;5.43;;;;;;;16.79;62.16;101552.91;4959536;28;119530;-80
2022/06/02 10:41:13;;;;;;;17.00;5.53;;;;;;;16.82;62.12;101559.53;4953579;28;119367;-80
2022/06/02 10:44:12;;;;;;;13.32;5.93;;;;;;;16.81;62.42;101558.75;4967933;28;120583;-80
2022/06/02 10:46:58;;;;;;;19.27;6.03;;;;;;;16.93;62.75;101561.75;4966247;28;119423;-80
2022/06/02 10:49:34;;;;;;;14.63;5.47;;;;;;;16.99;62.23;101563.38;4962949;28;119883;-81
2022/06/02 10:52:29;;;;;;;16.27;5.63;;;;;;;17.08;62.04;101566.09;4965047;28;119358;-80
2022/06/02 10:55:49;;;;;;;16.27;5.88;;;;;;;17.15;61.97;101560.19;4971588;28;119400;-79
2022/06/02 10:58:41;;;;;;;16.92;5.82;;;;;;;17.19;61.39;101565.53;4914697;28;120268;-80
2022/06/02 11:01:35;;;;;;;15.50;5.82;;;;;;;17.16;61.44;101558.19;4910248;28;119473;-79
2022/06/02 11:04:38;;;;;;;15.30;5.82;;;;;;;17.19;61.32;101573.84;4955229;28;119601;-80
2022/06/02 11:07:04;;;;;;;17.00;6.22;;;;;;;17.16;61.34;101574.81;4975727;28;119754;-80
2022/06/02 11:09:48;;;;;;;11.68;5.90;;;;;;;17.16;61.30;101566.50;4945642;28;119701;-79
2022/06/02 11:12:35;;;;;;;16.80;6.32;;;;;;;17.11;61.21;101579.00;4959754;28;119289;-80
2022/06/02 11:15:15;;;;;;;16.27;5.95;;;;;;;17.10;61.60;101580.25;4968608;28;119661;-80
2022/06/02 11:18:02;;;;;;;15.57;5.60;;;;;;;17.08;61.29;101579.97;4954282;28;119402;-79
2022/06/02 11:20:54;;;;;;;15.68;5.60;;;;;;;17.02;61.69;101573.53;4959495;28;119453;-79
2022/06/02 11:23:45;;;;;;;16.85;6.55;;;;;;;17.03;61.50;101575.06;4937481;28;121580;-79
2022/06/02 11:26:47;;;;;;;24.05;6.25;;;;;;;17.00;60.88;101587.09;4959984;28;120063;-79
2022/06/02 11:29:28;;;;;;;17.02;5.55;;;;;;;16.96;60.68;101582.97;4942511;28;119615;-79
2022/06/02 11:32:26;;;;;;;17.73;6.10;;;;;;;16.91;61.03;101589.94;4941831;28;119969;-80
2022/06/02 11:35:19;;;;;;;19.13;5.65;;;;;;;16.87;60.49;101590.13;4951998;28;119298;-80
2022/06/02 11:37:53;;;;;;;16.47;5.70;;;;;;;16.85;61.07;101587.06;4966283;28;119543;-79
2022/06/02 11:40:41;;;;;;;12.40;5.43;;;;;;;16.78;61.21;101579.06;4956919;28;119566;-79
2022/06/02 11:43:14;;;;;;;16.42;5.57;;;;;;;16.82;60.92;101590.00;4965239;28;119484;-80
2022/06/02 11:46:21;;;;;;;15.90;6.10;;;;;;;16.82;61.47;101604.63;4950403;28;119445;-80
2022/06/02 11:49:08;;;;;;;14.10;6.10;;;;;;;16.84;61.41;101596.59;4967090;28;119337;-79
2022/06/02 11:52:02;;;;;;;16.05;6.78;;;;;;;16.88;61.39;101601.97;4958563;28;120417;-79
2022/06/02 11:54:46;;;;;;;48.25;24.40;;;;;;;16.89;61.38;101617.34;4963722;28;119919;-79
2022/06/02 11:57:30;;;;;;;18.50;7.50;;;;;;;16.91;61.15;101623.19;4938192;28;119636;-79
2022/06/02 12:00:18;;;;;;;13.80;6.53;;;;;;;16.90;60.62;101616.13;4946905;28;119424;-79
2022/06/02 12:02:49;;;;;;;15.45;5.60;;;;;;;16.91;60.48;101611.34;4945309;28;119403;-79
2022/06/02 12:05:45;;;;;;;14.20;5.75;;;;;;;16.94;60.32;101611.16;4957514;28;119415;-78
2022/06/02 12:08:16;;;;;;;13.88;5.60;;;;;;;16.96;60.57;101603.13;4923383;28;120795;-79
2022/06/02 12:11:20;;;;;;;13.73;5.65;;;;;;;17.01;60.23;101610.78;4922481;28;119509;-79
2022/06/02 12:14:23;;;;;;;14.65;5.25;;;;;;;17.07;60.26;101613.69;4959375;28;119812;-79
2022/06/02 12:16:51;;;;;;;12.07;5.05;;;;;;;17.08;59.87;101623.56;4938295;28;119388;-79
2022/06/02 12:19:23;;;;;;;16.00;5.63;;;;;;;17.06;60.04;101617.72;4919949;28;119663;-80
2022/06/02 12:21:52;;;;;;;13.75;5.60;;;;;;;17.03;60.14;101627.72;4959912;28;120310;-79
2022/06/02 12:24:28;;;;;;;19.90;6.50;;;;;;;16.96;60.12;101628.06;4939580;28;119874;-79
2022/06/02 12:27:18;;;;;;;15.43;5.60;;;;;;;17.00;60.61;101631.44;4968762;28;119273;-79
2022/06/02 12:30:03;;;;;;;14.63;5.40;;;;;;;17.03;60.69;101624.94;4958485;28;120428;-79
2022/06/02 12:32:53;;;;;;;23.40;5.95;;;;;;;17.06;60.67;101628.81;4963369;28;119912;-79
2022/06/02 12:36:07;;;;;;;14.60;5.10;;;;;;;17.05;60.75;101630.81;4954915;28;119642;-80
2022/06/02 12:38:45;;;;;;;16.05;5.28;;;;;;;17.05;60.55;101628.03;4932752;28;119750;-79